Time;durP1;ratioP1;P1;durP2;ratioP2;P2;SDS_P1;SDS_P2;PMS_P1;PMS_P2;Temp;Humidity;BMP_temperature;BMP_pressure;BME280_temperature;BME280_humidity;BME280_pressure;Samples;Min_cycle;Max_cycle;Signal;HPM_P1;HPM_P2
2024/03/06 00:00:52;;;;;;;51.10;31.75;;;;;;;4.16;100.00;95790.34;2098319;28;20048;-69
2024/03/06 00:01:53;;;;;;;48.78;31.05;;;;;;;4.18;100.00;95787.75;2098760;28;20040;-69
2024/03/06 00:02:55;;;;;;;50.25;30.73;;;;;;;4.20;100.00;95783.44;2098213;28;20051;-69
2024/03/06 00:03:56;;;;;;;46.90;30.40;;;;;;;4.18;100.00;95788.59;2098915;28;20043;-69
2024/03/06 00:04:57;;;;;;;58.75;31.80;;;;;;;4.20;100.00;95789.41;2098253;28;20579;-70
2024/03/06 00:05:58;;;;;;;52.03;31.23;;;;;;;4.20;100.00;95788.56;2098943;28;20045;-70
2024/03/06 00:06:59;;;;;;;53.20;32.15;;;;;;;4.20;100.00;95791.13;2099064;28;20036;-70
2024/03/06 00:08:03;;;;;;;51.40;31.60;;;;;;;4.20;100.00;95794.53;2098948;28;20045;-70
2024/03/06 00:09:04;;;;;;;54.03;31.77;;;;;;;4.17;100.00;95794.63;2098843;28;20051;-71
2024/03/06 00:10:05;;;;;;;54.40;33.17;;;;;;;4.18;100.00;95793.72;2098992;28;20041;-71
2024/03/06 00:11:07;;;;;;;49.80;30.63;;;;;;;4.16;100.00;95792.91;2098903;28;20037;-72
2024/03/06 00:12:08;;;;;;;47.95;30.25;;;;;;;4.19;100.00;95800.53;2098052;28;20055;-71
2024/03/06 00:13:09;;;;;;;54.65;33.42;;;;;;;4.22;100.00;95807.34;2098890;28;20067;-72
2024/03/06 00:14:12;;;;;;;55.38;34.17;;;;;;;4.23;100.00;95798.75;2090227;28;20045;-71
2024/03/06 00:15:13;;;;;;;56.95;34.47;;;;;;;4.22;100.00;95801.34;2090178;28;20048;-72
2024/03/06 00:16:14;;;;;;;54.92;31.75;;;;;;;4.26;100.00;95802.97;2098872;28;20032;-72
2024/03/06 00:17:15;;;;;;;50.00;31.00;;;;;;;4.26;100.00;95800.41;2098851;28;20044;-72
2024/03/06 00:18:16;;;;;;;49.88;32.22;;;;;;;4.24;100.00;95805.56;2098747;28;20040;-72
2024/03/06 00:19:18;;;;;;;55.30;33.40;;;;;;;4.25;100.00;95796.13;2098819;28;20377;-72
2024/03/06 00:20:19;;;;;;;51.42;31.80;;;;;;;4.23;100.00;95797.94;2090328;28;20036;-72
2024/03/06 00:21:20;;;;;;;54.53;32.45;;;;;;;4.22;100.00;95798.78;2090120;28;20044;-72
2024/03/06 00:22:21;;;;;;;48.63;30.15;;;;;;;4.24;100.00;95797.88;2098788;28;20037;-72
2024/03/06 00:23:22;;;;;;;52.70;31.02;;;;;;;4.26;100.00;95797.84;2098863;28;20044;-72
2024/03/06 00:24:24;;;;;;;53.03;32.83;;;;;;;4.25;100.00;95796.13;2098359;28;20051;-72
2024/03/06 00:25:26;;;;;;;51.03;30.92;;;;;;;4.22;100.00;95797.06;2089318;28;20053;-72
2024/03/06 00:26:27;;;;;;;53.88;32.13;;;;;;;4.22;100.00;95801.34;2089929;28;20044;-72
2024/03/06 00:27:28;;;;;;;53.65;32.30;;;;;;;4.19;100.00;95802.28;2098732;28;20036;-72
2024/03/06 00:28:29;;;;;;;51.08;29.02;;;;;;;4.14;100.00;95801.53;2098187;28;20048;-72
2024/03/06 00:29:31;;;;;;;51.30;30.75;;;;;;;4.14;100.00;95805.00;2098167;28;20052;-72
2024/03/06 00:30:32;;;;;;;54.78;32.05;;;;;;;4.16;100.00;95798.06;2098125;28;20059;-72
2024/03/06 00:31:33;;;;;;;50.75;31.55;;;;;;;4.15;100.00;95800.69;2098873;28;20043;-72
2024/03/06 00:32:34;;;;;;;54.83;32.42;;;;;;;4.13;100.00;95805.00;2098723;28;20396;-72
2024/03/06 00:33:35;;;;;;;56.13;32.53;;;;;;;4.11;100.00;95796.50;2098879;28;20033;-72
2024/03/06 00:34:36;;;;;;;52.13;32.17;;;;;;;4.11;100.00;95806.78;2098694;28;20048;-72
2024/03/06 00:35:37;;;;;;;53.95;34.55;;;;;;;4.11;100.00;95801.63;2098607;28;20456;-71
2024/03/06 00:36:39;;;;;;;56.85;34.10;;;;;;;4.13;100.00;95802.44;2098630;28;20040;-71
2024/03/06 00:37:40;;;;;;;58.92;33.67;;;;;;;4.14;100.00;95798.97;2098394;28;20119;-71
2024/03/06 00:38:42;;;;;;;54.80;31.88;;;;;;;4.14;100.00;95797.28;2098757;28;20044;-70
2024/03/06 00:39:43;;;;;;;55.78;33.30;;;;;;;4.18;100.00;95801.44;2098476;28;20427;-70
2024/03/06 00:40:44;;;;;;;58.65;35.17;;;;;;;4.17;100.00;95804.91;2098472;28;20051;-71
2024/03/06 00:41:45;;;;;;;58.25;32.70;;;;;;;4.18;100.00;95803.19;2098382;28;20124;-70
2024/03/06 00:42:46;;;;;;;56.42;34.03;;;;;;;4.15;100.00;95804.09;2098625;28;20033;-70
2024/03/06 00:43:47;;;;;;;57.47;33.95;;;;;;;4.16;100.00;95802.38;2098640;28;20040;-69
2024/03/06 00:44:49;;;;;;;55.25;32.72;;;;;;;4.14;100.00;95801.53;2098867;28;20037;-70
2024/03/06 00:45:50;;;;;;;56.38;33.22;;;;;;;4.12;100.00;95801.59;2098185;28;20049;-71
2024/03/06 00:46:51;;;;;;;54.95;33.47;;;;;;;4.14;100.00;95807.56;2098811;28;20507;-72
2024/03/06 00:47:52;;;;;;;53.53;33.42;;;;;;;4.15;100.00;95803.25;2097961;28;20044;-72
2024/03/06 00:48:53;;;;;;;59.47;33.58;;;;;;;4.13;100.00;95800.72;2098509;28;20036;-72
2024/03/06 00:49:54;;;;;;;58.95;33.33;;;;;;;4.12;100.00;95801.59;2098627;28;20028;-72
2024/03/06 00:50:55;;;;;;;58.63;33.25;;;;;;;4.13;100.00;95803.28;2098713;28;20494;-72
2024/03/06 00:51:56;;;;;;;55.33;32.08;;;;;;;4.13;100.00;95803.28;2098272;28;20043;-73
2024/03/06 00:52:58;;;;;;;59.22;34.45;;;;;;;4.11;100.00;95794.75;2098567;28;20032;-72
2024/03/06 00:53:59;;;;;;;59.47;35.40;;;;;;;4.13;100.00;95805.00;2098524;28;20035;-71
2024/03/06 00:55:00;;;;;;;58.88;33.55;;;;;;;4.09;100.00;95801.69;2098745;28;20028;-71
2024/03/06 00:56:02;;;;;;;58.00;33.60;;;;;;;4.10;100.00;95800.78;2098524;28;20376;-72
2024/03/06 00:57:03;;;;;;;58.78;34.88;;;;;;;4.11;100.00;95801.63;2089250;28;20052;-72
2024/03/06 00:58:06;;;;;;;60.30;34.38;;;;;;;4.07;100.00;95795.72;2089650;28;20032;-72
2024/03/06 00:59:07;;;;;;;58.85;34.05;;;;;;;4.08;100.00;95789.69;2089549;28;20044;-72
2024/03/06 01:00:11;;;;;;;56.30;32.60;;;;;;;4.07;100.00;95792.31;2089494;28;20048;-71
2024/03/06 01:01:12;;;;;;;56.70;32.20;;;;;;;4.05;100.00;95787.22;2098609;28;20041;-71
2024/03/06 01:02:14;;;;;;;57.08;35.42;;;;;;;4.07;100.00;95795.72;2098448;28;20040;-72
2024/03/06 01:03:15;;;;;;;58.80;34.47;;;;;;;4.04;100.00;95793.25;2098222;28;20041;-72
2024/03/06 01:04:16;;;;;;;58.17;33.53;;;;;;;4.01;100.00;95787.31;2098451;28;20044;-72
2024/03/06 01:05:17;;;;;;;58.15;35.22;;;;;;;4.04;100.00;95792.41;2097907;28;20049;-73
2024/03/06 01:06:18;;;;;;;55.25;32.40;;;;;;;4.03;100.00;95793.28;2099128;28;20183;-71
2024/03/06 01:07:19;;;;;;;55.92;33.30;;;;;;;4.05;100.00;95796.66;2098369;28;20071;-72
2024/03/06 01:08:24;;;;;;;57.80;35.55;;;;;;;4.07;100.00;95802.59;2098927;28;20044;-72
2024/03/06 01:09:27;;;;;;;59.25;34.58;;;;;;;4.07;100.00;95795.72;2098815;28;20146;-72
2024/03/06 01:10:28;;;;;;;56.65;34.03;;;;;;;4.06;100.00;95794.03;2098458;28;20040;-72
2024/03/06 01:11:29;;;;;;;60.47;35.38;;;;;;;4.04;100.00;95790.66;2098498;28;20044;-71
2024/03/06 01:12:30;;;;;;;60.28;35.00;;;;;;;4.03;100.00;95794.09;2097739;28;20052;-72
2024/03/06 01:13:31;;;;;;;63.55;35.75;;;;;;;4.05;100.00;95794.91;2098420;28;20039;-71
2024/03/06 01:14:32;;;;;;;61.15;34.67;;;;;;;4.04;100.00;95797.53;2098484;28;20037;-71
2024/03/06 01:15:33;;;;;;;61.20;36.25;;;;;;;4.05;100.00;95794.09;2098381;28;20040;-72
2024/03/06 01:16:34;;;;;;;62.20;35.83;;;;;;;4.05;100.00;95787.22;2098452;28;20067;-72
2024/03/06 01:17:35;;;;;;;62.45;35.75;;;;;;;4.05;100.00;95797.50;2097861;28;20052;-72
2024/03/06 01:18:36;;;;;;;64.00;37.80;;;;;;;4.06;100.00;95795.75;2097714;28;20060;-72
2024/03/06 01:19:38;;;;;;;58.55;35.78;;;;;;;4.05;100.00;95792.34;2098297;28;20041;-72
2024/03/06 01:20:39;;;;;;;65.82;37.22;;;;;;;4.04;100.00;95795.81;2098425;28;20409;-71
2024/03/06 01:21:40;;;;;;;59.92;35.22;;;;;;;4.04;100.00;95797.53;2098460;28;20037;-71
2024/03/06 01:22:41;;;;;;;61.28;35.10;;;;;;;4.06;100.00;95794.03;2098345;28;20049;-71
2024/03/06 01:23:43;;;;;;;59.70;35.65;;;;;;;4.05;100.00;95794.91;2098414;28;20043;-71
2024/03/06 01:24:44;;;;;;;68.22;37.45;;;;;;;4.04;100.00;95793.25;2098121;28;20044;-71
2024/03/06 01:25:45;;;;;;;62.67;35.90;;;;;;;4.01;100.00;95788.19;2098368;28;20043;-70
2024/03/06 01:26:46;;;;;;;64.90;37.15;;;;;;;4.07;100.00;95792.31;2098427;28;20396;-71
2024/03/06 01:27:48;;;;;;;59.78;35.22;;;;;;;4.04;100.00;95790.66;2098366;28;20047;-71
2024/03/06 01:28:49;;;;;;;62.75;34.92;;;;;;;4.02;100.00;95791.59;2089473;28;20513;-71
2024/03/06 01:29:51;;;;;;;58.75;34.47;;;;;;;3.99;100.00;95787.38;2089561;28;20032;-71
2024/03/06 01:30:52;;;;;;;61.08;36.80;;;;;;;4.01;100.00;95787.31;2097775;28;20067;-71
2024/03/06 01:31:53;;;;;;;62.78;36.72;;;;;;;4.04;100.00;95787.25;2098331;28;20025;-70
2024/03/06 01:32:54;;;;;;;58.95;35.05;;;;;;;4.01;100.00;95788.19;2098366;28;20040;-70
2024/03/06 01:33:55;;;;;;;56.17;32.75;;;;;;;3.99;100.00;95782.22;2098345;28;20040;-71
2024/03/06 01:34:56;;;;;;;58.83;33.80;;;;;;;3.94;100.00;95784.91;2098239;28;20036;-71
2024/03/06 01:35:57;;;;;;;53.90;31.00;;;;;;;3.92;100.00;95784.09;2098395;28;20039;-72
2024/03/06 01:36:58;;;;;;;50.85;29.20;;;;;;;3.90;100.00;95785.00;2089011;28;20053;-72
2024/03/06 01:38:01;;;;;;;58.17;34.65;;;;;;;3.89;100.00;95781.59;2089462;28;20045;-72
2024/03/06 01:39:02;;;;;;;58.30;33.65;;;;;;;3.89;100.00;95791.03;2098296;28;20081;-72
2024/03/06 01:40:04;;;;;;;54.80;33.05;;;;;;;3.89;100.00;95788.47;2098317;28;20037;-72
2024/03/06 01:41:05;;;;;;;57.45;34.20;;;;;;;3.93;100.00;95784.97;2098310;28;20029;-71
2024/03/06 01:42:06;;;;;;;55.10;32.63;;;;;;;3.96;100.00;95793.44;2098357;28;20037;-72
2024/03/06 01:43:23;;;;;;;52.92;32.38;;;;;;;3.95;100.00;95789.16;2097851;28;20040;-73
2024/03/06 01:44:24;;;;;;;49.60;30.00;;;;;;;3.89;100.00;95791.88;2081108;28;20045;-72
2024/03/06 01:45:25;;;;;;;48.15;29.63;;;;;;;3.89;100.00;95789.31;2082114;28;20046;-73
2024/03/06 01:46:26;;;;;;;51.20;31.65;;;;;;;3.89;100.00;95788.47;2097651;28;20045;-72
2024/03/06 01:47:27;;;;;;;50.17;30.65;;;;;;;3.87;100.00;95793.63;2098296;28;20048;-73
2024/03/06 01:48:28;;;;;;;46.50;27.05;;;;;;;3.85;100.00;95777.44;2098332;28;20055;-72
2024/03/06 01:49:29;;;;;;;50.85;31.63;;;;;;;3.86;100.00;95783.41;2089439;28;20040;-72
2024/03/06 01:50:30;;;;;;;53.00;30.55;;;;;;;3.85;100.00;95789.41;2081218;28;20536;-72
2024/03/06 01:51:32;;;;;;;57.08;32.72;;;;;;;3.88;100.00;95794.50;2066175;28;20046;-72
2024/03/06 01:52:33;;;;;;;51.22;30.23;;;;;;;3.87;100.00;95785.09;2083153;28;20041;-72
2024/03/06 01:53:34;;;;;;;56.53;33.00;;;;;;;3.86;100.00;95793.69;2091139;28;20029;-72
2024/03/06 01:54:35;;;;;;;57.70;33.47;;;;;;;3.88;100.00;95782.50;2091207;28;20047;-72
2024/03/06 01:55:36;;;;;;;57.13;33.55;;;;;;;3.88;100.00;95781.66;2100164;28;20404;-71
2024/03/06 01:56:38;;;;;;;52.97;32.05;;;;;;;3.88;100.00;95785.06;2099935;28;20047;-71
2024/03/06 01:57:40;;;;;;;53.83;31.77;;;;;;;3.90;100.00;95780.75;2082904;28;20410;-70
2024/03/06 01:58:41;;;;;;;57.33;32.58;;;;;;;3.87;100.00;95777.38;2082367;28;20048;-70
2024/03/06 01:59:42;;;;;;;55.25;32.50;;;;;;;3.87;100.00;95782.53;2082942;28;20045;-70
2024/03/06 02:00:43;;;;;;;57.10;31.20;;;;;;;3.89;100.00;95783.34;2082952;28;20064;-70
2024/03/06 02:01:44;;;;;;;52.53;30.60;;;;;;;3.84;100.00;95775.72;2091088;28;20048;-71
2024/03/06 02:02:45;;;;;;;52.47;30.95;;;;;;;3.88;100.00;95779.09;2091137;28;20102;-70
2024/03/06 02:03:47;;;;;;;56.13;32.65;;;;;;;3.86;100.00;95785.97;2090786;28;20049;-69
2024/03/06 02:04:48;;;;;;;52.28;31.27;;;;;;;3.87;100.00;95785.09;2082661;28;20037;-71
2024/03/06 02:05:49;;;;;;;56.70;32.17;;;;;;;3.86;100.00;95783.41;2091023;28;20039;-69
2024/03/06 02:06:51;;;;;;;55.55;32.17;;;;;;;3.87;100.00;95783.34;2091002;28;20056;-68
2024/03/06 02:07:52;;;;;;;59.55;34.67;;;;;;;3.89;100.00;95791.88;2082042;28;20517;-69
2024/03/06 02:08:53;;;;;;;55.88;32.13;;;;;;;3.86;100.00;95781.69;2082793;28;20406;-69
2024/03/06 02:09:54;;;;;;;53.70;30.42;;;;;;;3.85;100.00;95782.56;2074612;28;20525;-70
2024/03/06 02:10:56;;;;;;;59.22;33.63;;;;;;;3.86;100.00;95786.81;2091216;28;20083;-68
2024/03/06 02:11:57;;;;;;;59.38;34.17;;;;;;;3.88;100.00;95781.66;2099807;28;20044;-68
2024/03/06 02:12:58;;;;;;;56.65;33.55;;;;;;;3.85;100.00;95781.72;2099871;28;20043;-68
2024/03/06 02:13:59;;;;;;;56.30;32.55;;;;;;;3.85;100.00;95786.84;2099835;28;20025;-67
2024/03/06 02:15:00;;;;;;;46.55;26.63;;;;;;;3.83;100.00;95780.94;2099804;28;20040;-68
2024/03/06 02:16:01;;;;;;;53.10;30.08;;;;;;;3.83;100.00;95784.34;2099782;28;20396;-68
2024/03/06 02:17:02;;;;;;;43.28;26.13;;;;;;;3.81;100.00;95780.94;2090958;28;20028;-69
2024/03/06 02:18:08;;;;;;;51.88;29.10;;;;;;;3.75;100.00;95779.38;2091003;28;20044;-67
2024/03/06 02:19:09;;;;;;;45.88;27.42;;;;;;;3.79;100.00;95787.00;2099961;28;20473;-67
2024/03/06 02:20:12;;;;;;;42.78;25.48;;;;;;;3.79;100.00;95781.88;2099767;28;20037;-66
2024/03/06 02:21:13;;;;;;;46.03;27.65;;;;;;;3.78;100.00;95781.03;2099735;28;20041;-67
2024/03/06 02:22:14;;;;;;;44.25;27.48;;;;;;;3.78;100.00;95775.06;2099789;28;20044;-67
2024/03/06 02:23:17;;;;;;;49.90;29.63;;;;;;;3.78;100.00;95769.91;2099764;28;20036;-66
2024/03/06 02:24:18;;;;;;;50.13;28.88;;;;;;;3.76;100.00;95778.47;2099881;28;20048;-69
2024/03/06 02:25:19;;;;;;;48.70;28.70;;;;;;;3.78;100.00;95780.19;2099802;28;20036;-68
2024/03/06 02:26:21;;;;;;;45.20;28.77;;;;;;;3.79;100.00;95774.16;2091107;28;20049;-67
2024/03/06 02:27:22;;;;;;;52.47;30.48;;;;;;;3.78;100.00;95775.06;2091026;28;20044;-68
2024/03/06 02:28:23;;;;;;;52.08;31.05;;;;;;;3.80;100.00;95770.72;2090752;28;20389;-67
2024/03/06 02:29:24;;;;;;;49.28;29.67;;;;;;;3.79;100.00;95767.28;2091111;28;20044;-66
2024/03/06 02:30:25;;;;;;;47.67;27.35;;;;;;;3.76;100.00;95768.22;2099795;28;20037;-66
2024/03/06 02:31:27;;;;;;;45.20;27.08;;;;;;;3.78;100.00;95764.78;2099692;28;20040;-67
2024/03/06 02:32:28;;;;;;;49.22;28.17;;;;;;;3.75;100.00;95771.66;2099984;28;20043;-67
2024/03/06 02:33:29;;;;;;;43.97;25.88;;;;;;;3.76;100.00;95769.94;2099779;28;20068;-67
2024/03/06 02:34:30;;;;;;;49.33;27.98;;;;;;;3.76;100.00;95767.38;2090978;28;20045;-67
2024/03/06 02:35:32;;;;;;;44.22;26.20;;;;;;;3.74;100.00;95764.00;2090195;28;20595;-67
2024/03/06 02:36:33;;;;;;;47.20;27.40;;;;;;;3.73;100.00;95765.72;2099640;28;20045;-67
2024/03/06 02:37:34;;;;;;;45.45;27.20;;;;;;;3.75;100.00;95771.66;2099655;28;20048;-67
2024/03/06 02:38:36;;;;;;;43.50;25.30;;;;;;;3.75;100.00;95769.09;2099761;28;20492;-68
2024/03/06 02:39:37;;;;;;;41.35;25.33;;;;;;;3.73;100.00;95770.00;2099683;28;20040;-71
2024/03/06 02:40:38;;;;;;;41.28;25.05;;;;;;;3.73;100.00;95765.72;2099636;28;20036;-71
2024/03/06 02:41:39;;;;;;;43.83;25.95;;;;;;;3.73;100.00;95767.44;2099793;28;20126;-70
2024/03/06 02:42:40;;;;;;;47.20;27.48;;;;;;;3.71;100.00;95767.47;2099683;28;20044;-70
2024/03/06 02:43:42;;;;;;;46.92;27.50;;;;;;;3.76;100.00;95767.38;2099502;28;20434;-70
2024/03/06 02:44:43;;;;;;;45.15;27.42;;;;;;;3.76;100.00;95764.81;2099502;28;20040;-67
2024/03/06 02:45:44;;;;;;;46.08;27.33;;;;;;;3.73;100.00;95757.19;2099505;28;20480;-67
2024/03/06 02:46:50;;;;;;;48.20;28.05;;;;;;;3.72;100.00;95760.63;2099568;28;20048;-67
2024/03/06 02:47:51;;;;;;;48.03;28.27;;;;;;;3.74;100.00;95761.41;2099216;28;20047;-69
2024/03/06 02:48:52;;;;;;;47.60;26.20;;;;;;;3.74;100.00;95761.41;2099381;28;20396;-70
2024/03/06 02:49:53;;;;;;;48.58;27.55;;;;;;;3.74;100.00;95761.41;2099317;28;20025;-70
2024/03/06 02:50:54;;;;;;;52.42;28.83;;;;;;;3.74;100.00;95757.16;2099551;28;20040;-71
2024/03/06 02:51:56;;;;;;;54.42;29.80;;;;;;;3.72;100.00;95769.19;2099478;28;20040;-71
2024/03/06 02:52:57;;;;;;;48.22;26.83;;;;;;;3.72;100.00;95758.91;2099495;28;20040;-70
2024/03/06 02:53:58;;;;;;;46.17;27.02;;;;;;;3.73;100.00;95768.28;2099524;28;20396;-68
2024/03/06 02:55:00;;;;;;;48.10;28.50;;;;;;;3.73;100.00;95763.16;2099536;28;20044;-69
2024/03/06 02:56:01;;;;;;;47.60;28.67;;;;;;;3.73;100.00;95757.19;2098762;28;20052;-70
2024/03/06 02:57:02;;;;;;;47.03;28.58;;;;;;;3.72;100.00;95756.34;2099412;28;20036;-69
2024/03/06 02:58:03;;;;;;;37.15;20.88;;;;;;;3.71;100.00;95753.78;2099580;28;20024;-71
2024/03/06 02:59:04;;;;;;;36.70;21.38;;;;;;;3.69;100.00;95756.41;2099514;28;20419;-69
2024/03/06 03:00:09;;;;;;;40.78;24.48;;;;;;;3.71;100.00;95757.19;2090710;28;20029;-71
2024/03/06 03:01:10;;;;;;;42.38;25.55;;;;;;;3.72;100.00;95756.34;2091136;28;20048;-71
2024/03/06 03:02:11;;;;;;;39.20;23.25;;;;;;;3.70;100.00;95754.69;2090457;28;20041;-70
2024/03/06 03:03:12;;;;;;;40.92;24.33;;;;;;;3.69;100.00;95755.56;2090656;28;20045;-71
2024/03/06 03:04:13;;;;;;;40.55;23.20;;;;;;;3.71;100.00;95753.78;2099489;28;20055;-70
2024/03/06 03:05:14;;;;;;;41.78;24.17;;;;;;;3.71;100.00;95759.75;2099393;28;20040;-69
2024/03/06 03:06:15;;;;;;;42.45;25.48;;;;;;;3.72;100.00;95756.34;2099472;28;20499;-70
2024/03/06 03:07:16;;;;;;;41.88;25.02;;;;;;;3.73;100.00;95757.19;2099453;28;20024;-69
2024/03/06 03:08:18;;;;;;;42.53;24.77;;;;;;;3.71;100.00;95754.63;2099527;28;20036;-69
2024/03/06 03:09:19;;;;;;;43.50;24.80;;;;;;;3.69;100.00;95756.41;2099891;28;20047;-69
2024/03/06 03:10:20;;;;;;;41.55;24.95;;;;;;;3.69;100.00;95756.41;2099401;28;20044;-68
2024/03/06 03:11:21;;;;;;;44.95;25.65;;;;;;;3.68;100.00;95761.56;2099434;28;20064;-68
2024/03/06 03:12:23;;;;;;;45.45;26.48;;;;;;;3.67;100.00;95753.03;2099385;28;20408;-68
2024/03/06 03:13:24;;;;;;;44.35;25.02;;;;;;;3.69;100.00;95758.16;2099399;28;20040;-70
2024/03/06 03:14:25;;;;;;;52.00;27.83;;;;;;;3.72;100.00;95760.63;2099392;28;20044;-69
2024/03/06 03:15:26;;;;;;;47.25;26.95;;;;;;;3.72;100.00;95755.50;2099469;28;20051;-69
2024/03/06 03:16:27;;;;;;;41.35;22.52;;;;;;;3.72;100.00;95756.34;2099370;28;20036;-69
2024/03/06 03:17:28;;;;;;;40.20;22.58;;;;;;;3.70;100.00;95757.25;2099373;28;20048;-68
2024/03/06 03:18:29;;;;;;;36.70;21.88;;;;;;;3.68;100.00;95751.31;2099355;28;20038;-68
2024/03/06 03:19:30;;;;;;;40.58;22.92;;;;;;;3.69;100.00;95760.72;2099415;28;20048;-68
2024/03/06 03:20:32;;;;;;;44.90;25.35;;;;;;;3.69;100.00;95756.41;2099224;28;20052;-67
2024/03/06 03:21:33;;;;;;;43.70;25.55;;;;;;;3.71;100.00;95757.19;2099294;28;20036;-68
2024/03/06 03:22:34;;;;;;;46.05;26.70;;;;;;;3.72;100.00;95758.91;2099326;28;20476;-67
2024/03/06 03:23:39;;;;;;;46.92;26.98;;;;;;;3.73;100.00;95754.59;2099254;28;20037;-68
2024/03/06 03:24:41;;;;;;;47.47;26.10;;;;;;;3.74;100.00;95758.84;2099341;28;20051;-68
2024/03/06 03:25:43;;;;;;;46.30;26.92;;;;;;;3.76;100.00;95754.53;2099281;28;20047;-69
2024/03/06 03:26:44;;;;;;;45.60;27.05;;;;;;;3.75;100.00;95755.41;2099237;28;20043;-69
2024/03/06 03:27:45;;;;;;;45.47;27.02;;;;;;;3.77;100.00;95751.09;2099327;28;20499;-67
2024/03/06 03:28:46;;;;;;;42.83;26.13;;;;;;;3.77;100.00;95756.22;2099281;28;20044;-66
2024/03/06 03:29:47;;;;;;;49.80;26.70;;;;;;;3.76;100.00;95754.53;2099329;28;20461;-66
2024/03/06 03:30:49;;;;;;;46.97;26.80;;;;;;;3.74;100.00;95757.16;2099332;28;20041;-66
2024/03/06 03:31:50;;;;;;;42.97;24.70;;;;;;;3.73;100.00;95758.00;2099238;28;20032;-66
2024/03/06 03:32:51;;;;;;;46.97;26.45;;;;;;;3.73;100.00;95754.59;2099241;28;20055;-66
2024/03/06 03:33:52;;;;;;;47.58;26.27;;;;;;;3.73;100.00;95752.88;2091824;28;20468;-66
2024/03/06 03:34:53;;;;;;;53.42;28.50;;;;;;;3.75;100.00;95756.25;2100049;28;20033;-65
2024/03/06 03:35:54;;;;;;;45.30;24.92;;;;;;;3.75;100.00;95756.25;2100069;28;20040;-65
2024/03/06 03:36:56;;;;;;;52.05;27.88;;;;;;;3.73;100.00;95755.44;2099990;28;20525;-66
2024/03/06 03:37:57;;;;;;;44.85;25.92;;;;;;;3.73;100.00;95760.59;2098824;28;20428;-65
2024/03/06 03:38:58;;;;;;;46.00;26.08;;;;;;;3.72;100.00;95755.50;2099087;28;20037;-64
2024/03/06 03:40:00;;;;;;;45.28;26.60;;;;;;;3.72;100.00;95755.50;2099183;28;20036;-65
2024/03/06 03:41:03;;;;;;;46.65;26.58;;;;;;;3.73;100.00;95768.28;2089466;28;20048;-65
2024/03/06 03:42:06;;;;;;;46.83;25.80;;;;;;;3.70;100.00;95755.53;2090626;28;20497;-66
2024/03/06 03:43:07;;;;;;;47.33;25.42;;;;;;;3.69;100.00;95768.41;2099188;28;20033;-65
2024/03/06 03:44:08;;;;;;;48.90;26.73;;;;;;;3.70;100.00;95764.97;2099118;28;20465;-69
2024/03/06 03:45:09;;;;;;;49.28;28.23;;;;;;;3.70;100.00;95765.78;2099182;28;20044;-67
2024/03/06 03:46:10;;;;;;;46.45;25.45;;;;;;;3.70;100.00;95760.66;2099234;28;20040;-66
2024/03/06 03:47:12;;;;;;;43.90;25.95;;;;;;;3.70;100.00;95759.81;2099277;28;20464;-66
2024/03/06 03:48:13;;;;;;;47.65;27.45;;;;;;;3.72;100.00;95771.75;2099084;28;20045;-65
2024/03/06 03:49:14;;;;;;;49.58;27.45;;;;;;;3.73;100.00;95763.16;2098391;28;20049;-66
2024/03/06 03:50:15;;;;;;;53.70;29.00;;;;;;;3.71;100.00;95767.47;2099078;28;20041;-66
2024/03/06 03:51:16;;;;;;;50.78;28.15;;;;;;;3.74;100.00;95767.44;2099118;28;20033;-66
2024/03/06 03:52:17;;;;;;;49.67;27.63;;;;;;;3.73;100.00;95770.00;2098777;28;20055;-66
2024/03/06 03:53:18;;;;;;;55.33;29.67;;;;;;;3.72;100.00;95766.63;2099157;28;20499;-66
2024/03/06 03:54:19;;;;;;;53.55;28.77;;;;;;;3.72;100.00;95765.78;2099048;28;20044;-67
2024/03/06 03:55:21;;;;;;;53.78;28.95;;;;;;;3.73;100.00;95767.44;2099072;28;20040;-68
2024/03/06 03:56:22;;;;;;;52.80;27.73;;;;;;;3.71;100.00;95764.91;2099084;28;20049;-68
2024/03/06 03:57:23;;;;;;;52.22;28.67;;;;;;;3.72;100.00;95768.34;2099005;28;20044;-66
2024/03/06 03:58:24;;;;;;;51.97;27.05;;;;;;;3.69;100.00;95758.16;2099075;28;20507;-67
2024/03/06 03:59:25;;;;;;;49.60;26.30;;;;;;;3.68;100.00;95759.00;2098437;28;20111;-67
2024/03/06 04:00:27;;;;;;;51.25;26.65;;;;;;;3.67;100.00;95767.59;2098982;28;20044;-67
2024/03/06 04:01:28;;;;;;;50.10;26.65;;;;;;;3.65;100.00;95759.91;2098906;28;20044;-66
2024/03/06 04:02:29;;;;;;;48.10;26.23;;;;;;;3.64;100.00;95760.81;2099193;28;20495;-69
2024/03/06 04:03:30;;;;;;;51.60;27.67;;;;;;;3.66;100.00;95761.63;2098936;28;20051;-67
2024/03/06 04:04:31;;;;;;;48.72;26.55;;;;;;;3.66;100.00;95761.63;2099012;28;20040;-67
2024/03/06 04:05:32;;;;;;;52.28;26.52;;;;;;;3.67;100.00;95767.59;2098921;28;20436;-70
2024/03/06 04:06:34;;;;;;;50.83;27.83;;;;;;;3.67;100.00;95765.88;2098932;28;20480;-68
2024/03/06 04:07:37;;;;;;;53.33;28.67;;;;;;;3.68;100.00;95764.16;2090163;28;20033;-69
2024/03/06 04:08:38;;;;;;;52.22;27.73;;;;;;;3.67;100.00;95765.88;2090415;28;20048;-68
2024/03/06 04:09:40;;;;;;;49.95;27.10;;;;;;;3.69;100.00;95758.16;2098898;28;20040;-70
2024/03/06 04:10:46;;;;;;;51.90;27.55;;;;;;;3.69;100.00;95768.41;2098977;28;20040;-69
2024/03/06 04:11:48;;;;;;;51.67;26.55;;;;;;;3.72;100.00;95760.63;2098881;28;20473;-69
2024/03/06 04:12:49;;;;;;;55.55;29.55;;;;;;;3.71;100.00;95764.06;2098862;28;20033;-69
2024/03/06 04:13:50;;;;;;;54.88;29.77;;;;;;;3.72;100.00;95763.22;2098316;28;20082;-70
2024/03/06 04:14:51;;;;;;;53.97;29.20;;;;;;;3.71;100.00;95764.06;2098877;28;20041;-70
2024/03/06 04:15:52;;;;;;;57.35;30.27;;;;;;;3.74;100.00;95764.84;2098843;28;20040;-68
2024/03/06 04:16:53;;;;;;;62.17;31.35;;;;;;;3.74;100.00;95766.56;2098884;28;20044;-68
2024/03/06 04:17:54;;;;;;;57.42;31.55;;;;;;;3.74;100.00;95767.44;2098822;28;20495;-70
2024/03/06 04:18:55;;;;;;;56.17;29.98;;;;;;;3.72;100.00;95768.34;2098813;28;20095;-70
2024/03/06 04:19:56;;;;;;;52.67;29.92;;;;;;;3.74;100.00;95764.00;2098842;28;20040;-70
2024/03/06 04:20:58;;;;;;;62.10;32.50;;;;;;;3.71;100.00;95767.47;2098891;28;20059;-68
2024/03/06 04:21:59;;;;;;;59.50;30.65;;;;;;;3.75;100.00;95781.94;2098796;28;20040;-67
2024/03/06 04:23:00;;;;;;;64.25;32.88;;;;;;;3.74;100.00;95782.84;2098822;28;20032;-66
2024/03/06 04:24:01;;;;;;;59.75;32.00;;;;;;;3.76;100.00;95777.66;2098752;28;20047;-66
2024/03/06 04:25:04;;;;;;;58.42;32.60;;;;;;;3.78;100.00;95781.03;2098781;28;20036;-66
2024/03/06 04:26:05;;;;;;;62.63;32.75;;;;;;;3.78;100.00;95775.06;2098738;28;20047;-67
2024/03/06 04:27:06;;;;;;;61.33;32.00;;;;;;;3.79;100.00;95782.69;2098763;28;20393;-66
2024/03/06 04:28:07;;;;;;;61.00;32.25;;;;;;;3.79;100.00;95776.72;2098747;28;20050;-66
2024/03/06 04:29:09;;;;;;;63.95;33.00;;;;;;;3.78;100.00;95782.75;2098840;28;20074;-66
2024/03/06 04:30:10;;;;;;;66.18;34.60;;;;;;;3.80;100.00;95776.69;2098532;28;20401;-66
2024/03/06 04:31:11;;;;;;;59.40;29.67;;;;;;;3.74;100.00;95777.69;2098048;28;20056;-65
2024/03/06 04:32:12;;;;;;;65.68;34.15;;;;;;;3.76;100.00;95773.34;2098699;28;20484;-66
2024/03/06 04:33:14;;;;;;;60.03;32.70;;;;;;;3.79;100.00;95784.44;2098759;28;20048;-66
2024/03/06 04:34:16;;;;;;;60.85;31.33;;;;;;;3.78;100.00;95780.19;2098701;28;20502;-66
2024/03/06 04:35:17;;;;;;;63.92;33.80;;;;;;;3.79;100.00;95781.88;2098686;28;20047;-66
2024/03/06 04:36:18;;;;;;;67.15;34.08;;;;;;;3.79;100.00;95774.16;2098720;28;20048;-67
2024/03/06 04:37:20;;;;;;;66.60;32.60;;;;;;;3.83;100.00;95780.94;2098709;28;20037;-66
2024/03/06 04:38:21;;;;;;;62.13;31.77;;;;;;;3.77;100.00;95779.34;2098686;28;20036;-65
2024/03/06 04:39:22;;;;;;;71.50;38.20;;;;;;;3.82;100.00;95787.75;2098184;28;20503;-66
2024/03/06 04:40:25;;;;;;;70.53;35.88;;;;;;;3.87;100.00;95785.09;2098702;28;20037;-66
2024/03/06 04:41:26;;;;;;;71.20;36.00;;;;;;;3.88;100.00;95776.53;2098594;28;20368;-66
2024/03/06 04:42:27;;;;;;;65.90;35.00;;;;;;;3.89;100.00;95780.78;2098676;28;20039;-66